WMT8LL LIMF-LATI
Flight info
| Callsign | WMT8LL |
|---|---|
| Flight time | 1h 32m |
| Altitude | 35000 |
| Route | TESTO DCT ITCAP DCT MIVKI DCT BEROK DCT EDUGI DCT TIBRI DCT BIGLO DCT LASTI L607 PETAK |
| Aircraft | A21N/M-SDE1E2E3FGIJ1J4RWXY/LB1 |
Departure
| Time | 2026-05-04 10:42 |
|---|---|
| Airport | Turin Airport (LIMF) |
Arrival
| Time | 2026-05-04 12:14 |
|---|---|
| Airport | Tirana International Airport Mother Teresa (LATI) |
| Time | Latitude | Longitude | Altitude | Speed | Heading |
|---|---|---|---|---|---|
| 2026-05-04 10:16 | 45.19218 | 7.64530 | 959 ft | 0 kts | 258° |
| 2026-05-04 10:34 | 45.19218 | 7.64531 | 959 ft | 0 kts | 258° |
| 2026-05-04 10:35 | 45.19218 | 7.64533 | 959 ft | 1 kts | 258° |
| 2026-05-04 10:35 | 45.19221 | 7.64553 | 959 ft | 2 kts | 258° |
| 2026-05-04 10:35 | 45.19224 | 7.64574 | 958 ft | 2 kts | 258° |
| 2026-05-04 10:35 | 45.19228 | 7.64595 | 958 ft | 2 kts | 258° |
| 2026-05-04 10:36 | 45.19231 | 7.64616 | 958 ft | 2 kts | 258° |
| 2026-05-04 10:36 | 45.19234 | 7.64637 | 958 ft | 2 kts | 258° |
| 2026-05-04 10:36 | 45.19236 | 7.64654 | 957 ft | 1 kts | 283° |
| 2026-05-04 10:36 | 45.19230 | 7.64666 | 957 ft | 1 kts | 344° |
| 2026-05-04 10:37 | 45.19222 | 7.64667 | 956 ft | 1 kts | 9° |
| 2026-05-04 10:37 | 45.19218 | 7.64666 | 956 ft | 0 kts | 3° |
| 2026-05-04 10:39 | 45.19220 | 7.64667 | 956 ft | 2 kts | 3° |
| 2026-05-04 10:39 | 45.19239 | 7.64668 | 957 ft | 1 kts | 3° |
| 2026-05-04 10:39 | 45.19246 | 7.64668 | 957 ft | 0 kts | 3° |
| 2026-05-04 10:40 | 45.19251 | 7.64669 | 958 ft | 3 kts | 3° |
| 2026-05-04 10:40 | 45.19302 | 7.64673 | 959 ft | 11 kts | 3° |
| 2026-05-04 10:40 | 45.19404 | 7.64679 | 962 ft | 18 kts | 1° |
| 2026-05-04 10:40 | 45.19508 | 7.64701 | 964 ft | 12 kts | 39° |
| 2026-05-04 10:41 | 45.19521 | 7.64823 | 962 ft | 14 kts | 94° |
| 2026-05-04 10:41 | 45.19530 | 7.64915 | 958 ft | 3 kts | 16° |
| 2026-05-04 10:41 | 45.19648 | 7.64932 | 961 ft | 47 kts | 2° |
| 2026-05-04 10:41 | 45.20217 | 7.64973 | 973 ft | 114 kts | 3° |
| 2026-05-04 10:42 | 45.21208 | 7.65035 | 997 ft | 167 kts | 3° |
| 2026-05-04 10:42 | 45.22399 | 7.65103 | 1494 ft | 174 kts | 3° |
| 2026-05-04 10:42 | 45.23626 | 7.65154 | 2139 ft | 179 kts | 2° |
| 2026-05-04 10:42 | 45.24856 | 7.65191 | 2797 ft | 180 kts | 4° |
| 2026-05-04 10:43 | 45.26112 | 7.65436 | 3157 ft | 190 kts | 26° |
| 2026-05-04 10:44 | 45.19822 | 7.75397 | 6396 ft | 269 kts | 147° |
| 2026-05-04 10:45 | 45.18269 | 7.76818 | 7185 ft | 271 kts | 147° |
| 2026-05-04 10:45 | 45.16685 | 7.78284 | 8006 ft | 272 kts | 147° |
| 2026-05-04 10:45 | 45.15136 | 7.79727 | 8804 ft | 273 kts | 147° |
| 2026-05-04 10:45 | 45.13554 | 7.81206 | 9601 ft | 274 kts | 147° |
| 2026-05-04 10:46 | 45.11958 | 7.82701 | 10357 ft | 277 kts | 148° |
| 2026-05-04 10:46 | 45.10327 | 7.84226 | 10787 ft | 291 kts | 148° |
| 2026-05-04 10:46 | 45.08616 | 7.85823 | 11310 ft | 300 kts | 148° |
| 2026-05-04 10:46 | 45.06863 | 7.87463 | 11968 ft | 304 kts | 148° |
| 2026-05-04 10:47 | 45.05108 | 7.89109 | 12626 ft | 308 kts | 149° |
| 2026-05-04 10:47 | 45.03310 | 7.90789 | 13275 ft | 311 kts | 149° |
| 2026-05-04 10:47 | 45.01491 | 7.92487 | 13891 ft | 315 kts | 150° |
| 2026-05-04 10:47 | 44.99661 | 7.94192 | 14519 ft | 318 kts | 150° |
| 2026-05-04 10:49 | 44.86384 | 8.06538 | 18615 ft | 338 kts | 149° |
| 2026-05-04 10:49 | 44.84446 | 8.08440 | 19125 ft | 343 kts | 143° |
| 2026-05-04 10:50 | 44.82754 | 8.10798 | 19638 ft | 350 kts | 133° |
| 2026-05-04 10:51 | 44.73839 | 8.32189 | 23020 ft | 374 kts | 123° |
| 2026-05-04 10:52 | 44.72548 | 8.35350 | 23463 ft | 377 kts | 123° |
| 2026-05-04 10:52 | 44.71240 | 8.38543 | 23901 ft | 379 kts | 123° |
| 2026-05-04 10:52 | 44.69924 | 8.41750 | 24341 ft | 382 kts | 123° |
| 2026-05-04 10:54 | 44.60468 | 8.64877 | 27074 ft | 402 kts | 119° |
| 2026-05-04 10:54 | 44.59267 | 8.68450 | 27435 ft | 405 kts | 116° |
| 2026-05-04 10:56 | 44.52325 | 8.94957 | 29840 ft | 423 kts | 112° |
| 2026-05-04 10:56 | 44.51321 | 8.98809 | 30151 ft | 425 kts | 112° |
| 2026-05-04 10:56 | 44.50303 | 9.02708 | 30448 ft | 428 kts | 112° |
| 2026-05-04 10:57 | 44.49287 | 9.06585 | 30719 ft | 431 kts | 112° |
| 2026-05-04 10:57 | 44.48251 | 9.10538 | 30996 ft | 434 kts | 112° |
| 2026-05-04 10:57 | 44.47218 | 9.14468 | 31292 ft | 436 kts | 113° |
| 2026-05-04 10:57 | 44.46171 | 9.18450 | 31567 ft | 439 kts | 112° |
| 2026-05-04 10:58 | 44.45106 | 9.22492 | 31825 ft | 441 kts | 112° |
| 2026-05-04 10:58 | 44.44043 | 9.26514 | 32093 ft | 444 kts | 112° |
| 2026-05-04 10:58 | 44.42973 | 9.30556 | 32358 ft | 446 kts | 112° |
| 2026-05-04 10:58 | 44.41904 | 9.34592 | 32624 ft | 448 kts | 112° |
| 2026-05-04 10:59 | 44.40826 | 9.38655 | 32900 ft | 450 kts | 112° |
| 2026-05-04 10:59 | 44.39728 | 9.42784 | 33145 ft | 452 kts | 112° |
| 2026-05-04 10:59 | 44.38631 | 9.46903 | 33368 ft | 455 kts | 112° |
| 2026-05-04 10:59 | 44.37536 | 9.51006 | 33609 ft | 457 kts | 112° |
| 2026-05-04 11:00 | 44.36420 | 9.55186 | 33843 ft | 459 kts | 112° |
| 2026-05-04 11:01 | 44.28460 | 9.84776 | 35104 ft | 473 kts | 112° |
| 2026-05-04 11:02 | 44.27303 | 9.89048 | 35114 ft | 473 kts | 112° |
| 2026-05-04 11:05 | 44.14880 | 10.55176 | 35136 ft | 476 kts | 97° |
| 2026-05-04 11:06 | 44.14140 | 10.64238 | 35137 ft | 474 kts | 97° |
| 2026-05-04 11:06 | 44.13381 | 10.73360 | 35139 ft | 473 kts | 98° |
| 2026-05-04 11:10 | 44.07907 | 11.36260 | 35127 ft | 467 kts | 97° |
| 2026-05-04 11:12 | 44.04648 | 11.71895 | 35124 ft | 464 kts | 98° |
| 2026-05-04 11:12 | 44.03822 | 11.80726 | 35122 ft | 464 kts | 98° |
| 2026-05-04 11:13 | 44.02985 | 11.89596 | 35119 ft | 463 kts | 98° |
| 2026-05-04 11:13 | 44.02148 | 11.98403 | 35117 ft | 462 kts | 98° |
| 2026-05-04 11:14 | 44.02004 | 11.99906 | 35119 ft | 462 kts | 98° |
| 2026-05-04 11:16 | 43.97847 | 12.42507 | 35107 ft | 463 kts | 98° |
| 2026-05-04 11:16 | 43.96964 | 12.51352 | 35101 ft | 464 kts | 98° |
| 2026-05-04 11:17 | 43.96081 | 12.60120 | 35090 ft | 463 kts | 98° |
| 2026-05-04 11:19 | 43.92460 | 12.95404 | 35091 ft | 463 kts | 98° |
| 2026-05-04 11:19 | 43.91539 | 13.04211 | 35084 ft | 464 kts | 98° |
| 2026-05-04 11:20 | 43.90608 | 13.13035 | 35088 ft | 464 kts | 98° |
| 2026-05-04 11:20 | 43.89671 | 13.21852 | 35087 ft | 464 kts | 98° |
| 2026-05-04 11:22 | 43.85860 | 13.57086 | 35087 ft | 464 kts | 98° |
| 2026-05-04 11:23 | 43.84887 | 13.65903 | 35084 ft | 463 kts | 99° |
| 2026-05-04 11:25 | 43.81438 | 13.96715 | 35085 ft | 465 kts | 98° |
| 2026-05-04 11:25 | 43.80442 | 14.05480 | 35081 ft | 465 kts | 98° |
| 2026-05-04 11:27 | 43.71430 | 14.43498 | 35092 ft | 466 kts | 112° |
| 2026-05-04 11:28 | 43.69004 | 14.51771 | 35087 ft | 467 kts | 111° |
| 2026-05-04 11:28 | 43.66551 | 14.60124 | 35093 ft | 469 kts | 111° |
| 2026-05-04 11:29 | 43.64113 | 14.68400 | 35096 ft | 470 kts | 112° |
| 2026-05-04 11:29 | 43.61654 | 14.76722 | 35096 ft | 471 kts | 112° |
| 2026-05-04 11:33 | 43.44222 | 15.34936 | 35098 ft | 472 kts | 112° |
| 2026-05-04 11:33 | 43.41710 | 15.43215 | 35100 ft | 472 kts | 112° |
| 2026-05-04 11:34 | 43.39166 | 15.51573 | 35097 ft | 472 kts | 111° |
| 2026-05-04 11:34 | 43.36640 | 15.59846 | 35097 ft | 473 kts | 111° |
| 2026-05-04 11:35 | 43.34095 | 15.68160 | 35096 ft | 472 kts | 112° |
| 2026-05-04 11:35 | 43.31565 | 15.76394 | 35095 ft | 472 kts | 112° |
| 2026-05-04 11:36 | 43.29002 | 15.84711 | 35094 ft | 473 kts | 112° |
| 2026-05-04 11:36 | 43.26446 | 15.92976 | 35100 ft | 473 kts | 112° |
| 2026-05-04 11:37 | 43.23878 | 16.01252 | 35099 ft | 473 kts | 112° |
| 2026-05-04 11:37 | 43.21310 | 16.09506 | 35104 ft | 473 kts | 112° |
| 2026-05-04 11:38 | 43.18725 | 16.17786 | 35102 ft | 473 kts | 112° |
| 2026-05-04 11:38 | 43.16145 | 16.26024 | 35100 ft | 473 kts | 111° |
| 2026-05-04 11:39 | 43.13565 | 16.34237 | 35101 ft | 473 kts | 112° |
| 2026-05-04 11:41 | 43.04443 | 16.63077 | 35103 ft | 473 kts | 111° |
| 2026-05-04 11:41 | 43.01822 | 16.71304 | 35103 ft | 473 kts | 112° |
| 2026-05-04 11:42 | 42.99202 | 16.79506 | 35103 ft | 473 kts | 112° |
| 2026-05-04 11:42 | 42.96585 | 16.87668 | 35104 ft | 473 kts | 112° |
| 2026-05-04 11:43 | 42.93953 | 16.95858 | 35104 ft | 473 kts | 112° |
| 2026-05-04 11:43 | 42.91310 | 17.04056 | 35104 ft | 473 kts | 112° |
| 2026-05-04 11:44 | 42.88658 | 17.12246 | 35102 ft | 473 kts | 111° |
| 2026-05-04 11:44 | 42.86001 | 17.20433 | 35103 ft | 473 kts | 111° |
| 2026-05-04 11:45 | 42.83357 | 17.28557 | 35101 ft | 473 kts | 111° |
| 2026-05-04 11:45 | 42.80680 | 17.36759 | 35104 ft | 473 kts | 111° |
| 2026-05-04 11:46 | 42.78016 | 17.44899 | 35104 ft | 473 kts | 111° |
| 2026-05-04 11:46 | 42.75349 | 17.53020 | 35106 ft | 473 kts | 111° |
| 2026-05-04 11:47 | 42.72659 | 17.61185 | 35105 ft | 473 kts | 111° |
| 2026-05-04 11:47 | 42.69982 | 17.69281 | 35102 ft | 474 kts | 111° |
| 2026-05-04 11:48 | 42.67282 | 17.77433 | 35099 ft | 474 kts | 111° |
| 2026-05-04 11:48 | 42.64587 | 17.85544 | 35107 ft | 474 kts | 111° |
| 2026-05-04 11:49 | 42.61869 | 17.93691 | 35114 ft | 474 kts | 111° |
| 2026-05-04 11:49 | 42.59160 | 18.01799 | 35119 ft | 474 kts | 111° |
| 2026-05-04 11:50 | 42.56441 | 18.09904 | 35118 ft | 473 kts | 111° |
| 2026-05-04 11:50 | 42.53734 | 18.17953 | 35118 ft | 473 kts | 111° |
| 2026-05-04 11:51 | 42.51009 | 18.26035 | 35119 ft | 473 kts | 111° |
| 2026-05-04 11:51 | 42.48273 | 18.34129 | 34945 ft | 471 kts | 111° |
| 2026-05-04 11:51 | 42.46917 | 18.38131 | 34113 ft | 478 kts | 111° |
| 2026-05-04 11:52 | 42.45277 | 18.42096 | 32940 ft | 489 kts | 122° |
| 2026-05-04 11:52 | 42.43239 | 18.45737 | 31874 ft | 491 kts | 126° |
| 2026-05-04 11:52 | 42.41104 | 18.49307 | 31076 ft | 484 kts | 126° |
| 2026-05-04 11:52 | 42.39012 | 18.52783 | 30372 ft | 475 kts | 126° |
| 2026-05-04 11:53 | 42.36861 | 18.56105 | 29745 ft | 470 kts | 134° |
| 2026-05-04 11:53 | 42.34420 | 18.58963 | 29152 ft | 467 kts | 135° |
| 2026-05-04 11:53 | 42.32217 | 18.62141 | 28573 ft | 461 kts | 125° |
| 2026-05-04 11:53 | 42.30347 | 18.65627 | 28116 ft | 453 kts | 121° |
| 2026-05-04 11:55 | 42.15644 | 18.86468 | 25002 ft | 427 kts | 133° |
| 2026-05-04 11:55 | 42.13525 | 18.89248 | 24547 ft | 423 kts | 133° |
| 2026-05-04 11:56 | 42.11430 | 18.91972 | 24103 ft | 420 kts | 133° |
| 2026-05-04 11:56 | 42.09338 | 18.94675 | 23645 ft | 416 kts | 133° |
| 2026-05-04 11:56 | 42.07262 | 18.97352 | 23182 ft | 413 kts | 133° |
| 2026-05-04 11:56 | 42.05197 | 19.00016 | 22733 ft | 409 kts | 133° |
| 2026-05-04 11:57 | 42.03156 | 19.02643 | 22278 ft | 406 kts | 133° |
| 2026-05-04 11:57 | 42.01112 | 19.05271 | 21808 ft | 403 kts | 133° |
| 2026-05-04 11:57 | 41.99123 | 19.07826 | 21348 ft | 399 kts | 133° |
| 2026-05-04 11:57 | 41.97107 | 19.10413 | 20902 ft | 396 kts | 133° |
| 2026-05-04 11:58 | 41.95125 | 19.12954 | 20435 ft | 393 kts | 132° |
| 2026-05-04 11:58 | 41.93174 | 19.15450 | 19981 ft | 391 kts | 133° |
| 2026-05-04 11:58 | 41.91202 | 19.17968 | 19544 ft | 388 kts | 133° |
| 2026-05-04 11:58 | 41.89259 | 19.20449 | 19078 ft | 386 kts | 133° |
| 2026-05-04 11:59 | 41.87330 | 19.22906 | 18612 ft | 383 kts | 133° |
| 2026-05-04 11:59 | 41.85424 | 19.25331 | 18142 ft | 380 kts | 132° |
| 2026-05-04 11:59 | 41.83500 | 19.27780 | 17695 ft | 376 kts | 132° |
| 2026-05-04 11:59 | 41.81629 | 19.30160 | 17270 ft | 374 kts | 132° |
| 2026-05-04 12:00 | 41.79745 | 19.32555 | 16787 ft | 372 kts | 132° |
| 2026-05-04 12:00 | 41.77877 | 19.34944 | 16328 ft | 369 kts | 132° |
| 2026-05-04 12:00 | 41.76056 | 19.37312 | 15914 ft | 366 kts | 131° |
| 2026-05-04 12:00 | 41.74242 | 19.39684 | 15431 ft | 363 kts | 131° |
| 2026-05-04 12:01 | 41.72447 | 19.42026 | 14988 ft | 359 kts | 131° |
| 2026-05-04 12:01 | 41.70668 | 19.44345 | 14535 ft | 357 kts | 131° |
| 2026-05-04 12:02 | 41.58630 | 19.54256 | 12056 ft | 349 kts | 173° |
| 2026-05-04 12:03 | 41.56242 | 19.54527 | 11686 ft | 345 kts | 173° |
| 2026-05-04 12:03 | 41.53874 | 19.54805 | 11299 ft | 343 kts | 173° |
| 2026-05-04 12:03 | 41.51481 | 19.55102 | 10883 ft | 340 kts | 173° |
| 2026-05-04 12:03 | 41.49150 | 19.55402 | 10488 ft | 337 kts | 172° |
| 2026-05-04 12:04 | 41.46849 | 19.55708 | 10202 ft | 330 kts | 172° |
| 2026-05-04 12:04 | 41.44596 | 19.56010 | 10087 ft | 317 kts | 172° |
| 2026-05-04 12:04 | 41.42418 | 19.56305 | 9751 ft | 313 kts | 172° |
| 2026-05-04 12:04 | 41.40272 | 19.56597 | 9390 ft | 310 kts | 172° |
| 2026-05-04 12:05 | 41.38158 | 19.56884 | 9102 ft | 304 kts | 172° |
| 2026-05-04 12:05 | 41.36040 | 19.57173 | 8718 ft | 302 kts | 172° |
| 2026-05-04 12:05 | 41.33981 | 19.57454 | 8377 ft | 300 kts | 172° |
| 2026-05-04 12:05 | 41.31907 | 19.57735 | 8024 ft | 297 kts | 172° |
| 2026-05-04 12:06 | 41.29855 | 19.58014 | 7678 ft | 294 kts | 172° |
| 2026-05-04 12:06 | 41.27851 | 19.58286 | 7328 ft | 292 kts | 172° |
| 2026-05-04 12:06 | 41.25843 | 19.58558 | 6991 ft | 289 kts | 172° |
| 2026-05-04 12:06 | 41.23844 | 19.58828 | 6646 ft | 286 kts | 172° |
| 2026-05-04 12:07 | 41.21864 | 19.59095 | 6313 ft | 284 kts | 172° |
| 2026-05-04 12:07 | 41.19917 | 19.59443 | 5954 ft | 281 kts | 163° |
| 2026-05-04 12:07 | 41.18282 | 19.60722 | 5564 ft | 274 kts | 129° |
| 2026-05-04 12:07 | 41.17464 | 19.62908 | 5220 ft | 265 kts | 97° |
| 2026-05-04 12:08 | 41.17497 | 19.65305 | 4908 ft | 259 kts | 81° |
| 2026-05-04 12:08 | 41.17742 | 19.67663 | 4573 ft | 258 kts | 81° |
| 2026-05-04 12:08 | 41.17965 | 19.70016 | 4250 ft | 256 kts | 82° |
| 2026-05-04 12:08 | 41.18436 | 19.72206 | 4108 ft | 242 kts | 58° |
| 2026-05-04 12:09 | 41.19587 | 19.73690 | 4044 ft | 227 kts | 27° |
| 2026-05-04 12:09 | 41.21052 | 19.74357 | 3965 ft | 215 kts | 10° |
| 2026-05-04 12:09 | 41.22503 | 19.74492 | 3953 ft | 208 kts | 360° |
| 2026-05-04 12:09 | 41.23930 | 19.74372 | 3841 ft | 202 kts | 356° |
| 2026-05-04 12:10 | 41.25320 | 19.74178 | 3485 ft | 201 kts | 355° |
| 2026-05-04 12:10 | 41.26712 | 19.73975 | 3140 ft | 198 kts | 355° |
| 2026-05-04 12:10 | 41.28056 | 19.73790 | 2844 ft | 194 kts | 355° |
| 2026-05-04 12:10 | 41.29380 | 19.73616 | 2545 ft | 186 kts | 355° |
| 2026-05-04 12:11 | 41.30640 | 19.73443 | 2195 ft | 178 kts | 354° |
| 2026-05-04 12:11 | 41.31829 | 19.73258 | 1920 ft | 166 kts | 354° |
| 2026-05-04 12:11 | 41.32929 | 19.73117 | 1731 ft | 151 kts | 357° |
| 2026-05-04 12:11 | 41.33948 | 19.73011 | 1460 ft | 145 kts | 356° |
| 2026-05-04 12:12 | 41.34967 | 19.72885 | 1289 ft | 146 kts | 355° |
| 2026-05-04 12:12 | 41.35978 | 19.72770 | 1069 ft | 145 kts | 355° |
| 2026-05-04 12:12 | 41.36976 | 19.72650 | 858 ft | 145 kts | 354° |
| 2026-05-04 12:12 | 41.37983 | 19.72492 | 634 ft | 145 kts | 354° |
| 2026-05-04 12:13 | 41.38988 | 19.72345 | 435 ft | 144 kts | 360° |
| 2026-05-04 12:14 | 41.42281 | 19.71800 | 119 ft | 13 kts | 262° |
| 2026-05-04 12:15 | 41.42268 | 19.71672 | 117 ft | 14 kts | 263° |
| 2026-05-04 12:15 | 41.42232 | 19.71555 | 118 ft | 13 kts | 203° |
| 2026-05-04 12:15 | 41.42142 | 19.71558 | 119 ft | 13 kts | 175° |
| 2026-05-04 12:15 | 41.42072 | 19.71539 | 119 ft | 7 kts | 239° |
| 2026-05-04 12:16 | 41.42065 | 19.71505 | 119 ft | 1 kts | 268° |